Nearby METAR Reports

 

KSJC - San Jose, California, USA
Distance from station: NE 14km
Updated: 19/01/2019 23:53
Mostly cloudy
Mostly cloudy
 Wind from NW
Wind: NW 11 km/h
Temperature: 18°C
Dew Point: 11°C
Humidity: 64%
Barometer: 1024.4 hPa
Clouds: Mostly cloudy
Visibility: 16 km
Cloud details: Few Clouds 975 m
Partly cloudy 1829 m
Mostly cloudy 3658 m
2019/01/19 23:53 KSJC 192353Z 32006KT 10SM FEW032 SCT060 BKN120 18/11 A3025 RMK AO2 SLP242 T01830111 10206 20150 56017
KNUQ - Moffett Nas/Mtn, California, USA
Distance from station: N 14km
Updated: 19/01/2019 23:56
Overcast
Overcast
 Wind from NNW
Wind: NNW 7 km/h
Temperature: 18°C
Dew Point: 10°C
Humidity: 60%
Barometer: 1024.7 hPa
Clouds: Overcast
Visibility: 16 km
Cloud details: Overcast 1676 m
2019/01/19 23:56 KNUQ 192356Z 33004KT 10SM OVC055 18/10 A3026 RMK AO2 SLP249 T01780100 10178 20144 56018
 
KPAO - Palo Alto, California, USA
Distance from station: NNW 23km
Updated: 19/01/2019 23:47
Mostly cloudy
Mostly cloudy
 Wind from N
Wind: N 9 km/h
Temperature: 18°C
Dew Point: 11°C
Humidity: 64%
Barometer: 1025.1 hPa
Clouds: Mostly cloudy
Visibility: 16 km
Cloud details: Few Clouds 1829 m
Mostly cloudy 1829 m
Mostly cloudy 4572 m
2019/01/19 23:47 KPAO 192347Z 36005KT 10SM FEW060 BKN060 BKN150 18/11 A3027
KRHV - San Jose/Reid, California, USA
Distance from station: ENE 19km
Updated: 19/01/2019 23:53
Mostly cloudy
Mostly cloudy
 Wind from WNW
Wind: WNW 15 km/h
Temperature: 20°C
Dew Point: 11°C
Humidity: 56%
Barometer: 1023.7 hPa
Clouds: Mostly cloudy
Visibility: 16 km
Cloud details: Few Clouds 914 m
Mostly cloudy 1219 m
2019/01/19 23:53 KRHV 192353Z 30008KT 10SM FEW030 BKN040 20/11 A3023
 
KOAK - Oakland, California, USA
Distance from station: NNW 50km
Updated: 19/01/2019 23:53
Mostly cloudy
Mostly cloudy
 Wind from WNW
Wind: WNW 11 km/h
Temperature: 17°C
Dew Point: 11°C
Humidity: 68%
Barometer: 1024.7 hPa
Clouds: Mostly cloudy
Visibility: 16 km
Cloud details: Few Clouds 853 m
Few Clouds 1829 m
Mostly cloudy 7620 m
2019/01/19 23:53 KOAK 192353Z 29006KT 10SM FEW028 FEW060 BKN250 17/11 A3026 RMK AO2 SLP247 T01670111 10178 20150 56019
KSQL - San Carlos Airpo, California, USA
Distance from station: NW 34km
Updated: 19/01/2019 23:47
Mostly cloudy
Mostly cloudy
 Wind from N
Wind: N 6 km/h
Temperature: 18°C
Dew Point: 13°C
Humidity: 73%
Barometer: 1024.7 hPa
Clouds: Mostly cloudy
Visibility: 16 km
Cloud details: Mostly cloudy 1829 m
2019/01/19 23:47 KSQL 192347Z 36003KT 10SM BKN060 18/13 A3026
 
KSFO - San Francisco, California, USA
Distance from station: NW 49km
Updated: 19/01/2019 23:56
Partly cloudy
Partly cloudy
 Wind from calm
Wind: Calm
Temperature: 18°C
Dew Point: 9°C
Humidity: 56%
Barometer: 1024.4 hPa
Clouds: Partly cloudy
Visibility: 16 km
Cloud details: Partly cloudy 1829 m
2019/01/19 23:56 KSFO 192356Z 00000KT 10SM SCT060 18/09 A3025 RMK AO2 SLP242 T01830089 10183 20144 56020 $
KE16 - San Martin, California, USA
Distance from station: ESE 43km
Updated: 20/01/2019 00:10
Clear
Clear
 Wind from NNW
Wind: NNW 13 km/h
Temperature: 20°C
Dew Point: 12°C
Humidity: 60%
Barometer: 1024.4 hPa
Clouds: Clear
Visibility: 16 km
2019/01/20 00:10 KE16 200010Z AUTO 34007KT 10SM CLR 20/12 A3025 RMK AO2
 
KWVI - Watsonville, California, USA
Distance from station: SSE 44km
Updated: 19/01/2019 23:53
Clear
Clear
 Wind from W
Wind: W 11 km/h
Temperature: 18°C
Dew Point: 12°C
Humidity: 68%
Barometer: 1024 hPa
Clouds: Clear
Visibility: 16 km
2019/01/19 23:53 KWVI 192353Z AUTO 27006KT 10SM CLR 18/12 A3024 RMK AO2 SLP240 T01830117 10222 20144 56017
KHAF - Half Moon Bay, California, USA
Distance from station: WNW 50km
Updated: 20/01/2019 00:15
Haze, Overcast
Haze, Overcast
 Wind from calm
Wind: Calm
Temperature: 15°C
Dew Point: 10°C
Humidity: 72%
Barometer: 1025.1 hPa
Summary: Haze
Clouds: Overcast
Visibility: 8 km
Cloud details: Overcast 1829 m
2019/01/20 00:15 KHAF 200015Z AUTO 00000KT 5SM HZ OVC060 15/10 A3027 RMK AO2
 
KHWD - Hayward, California, USA
Distance from station: N 44km
Updated: 19/01/2019 23:54
Partly cloudy
Partly cloudy
 Wind from W
Wind: W 7 km/h
Temperature: 18°C
Dew Point: 11°C
Humidity: 64%
Barometer: 1024.4 hPa
Clouds: Partly cloudy
Visibility: 16 km
Cloud details: Partly cloudy 1829 m
2019/01/19 23:54 KHWD 192354Z 27004KT 10SM SCT060 18/11 A3025 RMK AO2 SLP254 T01780106 10194 20150 56020
KLVK - Livermore, California, USA
Distance from station: NNE 51km
Updated: 19/01/2019 23:53
Clear
Clear
 Wind from ENE
Wind: ENE 15 km/h
Temperature: 18°C
Dew Point: 13°C
Humidity: 73%
Barometer: 1024.4 hPa
Clouds: Clear
Visibility: 16 km
2019/01/19 23:53 KLVK 192353Z 07008KT 10SM CLR 18/13 A3025 RMK AO2 SLP241 T01780128 10200 20122 56018